Seastreak Highlands — WDE4031 — position and weather

sailwx.info

Track history (hours):
 
Tides and Currents Weather Stations Pressure Air Temp Water Temp Dewpoint Dewpoint Depression Visibility Wind Speed Wind Dir Waves Ship Positions

Seastreak Highlands

Owner: Seastreak llc, atlantic highlands, NJ. More information available from US FCC via Universal Licensing System and Coast Guard Vessel Documentation Center.

Last reported at 2014-Oct-24 23:11 UTC. Time now 2014-Oct-25 11:23 UTC.
Position N 40°25' W 074°02'.

Length 44 m; draft 2 m.

Type: High speed craft. MMSI: 367347670.

Date/timePositionNaut miles runAvg speedWind from/ knotsBaromVisibWave heightAir tempDewpointWater temp
2014-Oct-24 23:11N 40°25' W 074°02'813.0
2014-Oct-24 22:32N 40°34' W 074°02'3 3.6
2014-Oct-24 21:34N 40°37' W 074°03'3 3.0
2014-Oct-24 20:33N 40°34' W 074°02'9 9.0
2014-Oct-24 19:34N 40°43' W 073°58'11 1.7
2014-Oct-24 13:10N 40°32' W 074°02'1321.2
2014-Oct-24 12:33N 40°45' W 073°58'11 0.8
2014-Oct-23 22:34N 40°34' W 074°02'2 2.3
2014-Oct-23 21:34N 40°37' W 074°03'2 2.4
2014-Oct-23 20:33N 40°34' W 074°02'8 8.2
2014-Oct-23 19:34N 40°42' W 073°60'4 0.9
2014-Oct-23 15:34N 40°39' W 074°02'3 2.6
2014-Oct-23 14:34N 40°36' W 074°03'5 3.9
2014-Oct-23 13:16N 40°31' W 074°02'1418.8
2014-Oct-23 12:33N 40°45' W 073°58'1913.4
2014-Oct-23 11:07N 40°25' W 074°00'1 0.8
2014-Oct-23 10:27N 40°25' W 074°01'10 0.9
2014-Oct-22 22:33N 40°36' W 074°03'1 0.8
2014-Oct-22 21:34N 40°36' W 074°03'2 2.1
2014-Oct-22 20:33N 40°34' W 074°02'7 7.0
2014-Oct-22 19:34N 40°41' W 074°01'15 4.5
2014-Oct-22 16:05N 40°26' W 074°01'1427.2
2014-Oct-22 15:34N 40°40' W 074°03'2 1.6
2014-Oct-22 14:34N 40°38' W 074°02'7 5.8
2014-Oct-22 13:18N 40°31' W 074°02'1418.6
2014-Oct-22 12:33N 40°45' W 073°58'10 0.7
2014-Oct-21 22:33N 40°36' W 074°03'1 1.4
2014-Oct-21 21:33N 40°37' W 074°03'2 1.9
2014-Oct-21 20:34N 40°35' W 074°03'8 7.6
2014-Oct-21 19:34N 40°42' W 073°59'1716.3
2014-Oct-21 18:31N 40°25' W 074°01'1 0.2
2014-Oct-21 14:15N 40°25' W 074°02'5 5.2
2014-Oct-21 13:21N 40°30' W 074°02'1518.8
2014-Oct-21 12:33N 40°45' W 073°58'2017.7
2014-Oct-21 11:27N 40°25' W 074°02'11 0.9
2014-Oct-20 22:34N 40°37' W 074°03'2 2.3
2014-Oct-20 21:33N 40°34' W 074°02'3 2.5
2014-Oct-20 20:33N 40°37' W 074°03'6 5.7
2014-Oct-20 19:33N 40°42' W 074°00'1714.2
2014-Oct-20 18:22N 40°25' W 074°02'0 0.0
2014-Oct-20 17:32N 40°25' W 074°02'0 0.0
2014-Oct-20 15:12N 40°25' W 074°02'0 0.0
2014-Oct-20 14:20N 40°25' W 074°02'0 0.0
2014-Oct-20 13:15N 40°25' W 074°02'0 0.0
2014-Oct-20 12:15N 40°25' W 074°02'0 0.0
2014-Oct-20 11:33N 40°25' W 074°02'0 0.0
2014-Oct-20 10:26N 40°25' W 074°02'0 0.0
2014-Oct-20 07:26N 40°25' W 074°02'0 0.0
2014-Oct-20 06:31N 40°25' W 074°02'0 0.0
2014-Oct-20 04:25N 40°25' W 074°02'0 0.0
2014-Oct-19 15:15N 40°25' W 074°02'0 0.0
2014-Oct-19 13:21N 40°25' W 074°02'0 0.0
2014-Oct-19 10:24N 40°25' W 074°02'0 0.0
2014-Oct-19 00:20N 40°25' W 074°02'0 0.0
2014-Oct-18 21:14N 40°25' W 074°02'0 0.0
2014-Oct-18 20:26N 40°25' W 074°02'0 0.0
2014-Oct-18 17:15N 40°25' W 074°02'0 0.0
2014-Oct-18 13:30N 40°25' W 074°02'0 0.0
2014-Oct-18 11:21N 40°25' W 074°02'0 0.0
2014-Oct-18 09:32N 40°25' W 074°02'0 0.0
2014-Oct-18 07:12N 40°25' W 074°02'0 0.0
2014-Oct-18 06:27N 40°25' W 074°02'0 0.0
2014-Oct-18 05:17N 40°25' W 074°02'0 0.0
2014-Oct-18 04:33N 40°25' W 074°02'0 0.0
2014-Oct-18 03:33N 40°25' W 074°02'0 0.0
2014-Oct-18 02:32N 40°25' W 074°02'0 0.0
2014-Oct-18 01:33N 40°25' W 074°02'0 0.0
2014-Oct-18 00:33N 40°25' W 074°02'0 0.0
2014-Oct-17 23:33N 40°25' W 074°02'0 0.0
2014-Oct-17 22:33N 40°25' W 074°02'0 0.0
2014-Oct-17 19:22N 40°25' W 074°02'0 0.0
2014-Oct-17 18:14N 40°25' W 074°02'0 0.0
2014-Oct-17 17:28N 40°25' W 074°02'0 0.0
2014-Oct-17 16:18N 40°25' W 074°02'0 0.0
2014-Oct-17 15:33N 40°25' W 074°02'0 0.0
2014-Oct-17 14:27N 40°25' W 074°02'0 0.0
2014-Oct-17 13:32N 40°25' W 074°02'0 0.0
2014-Oct-17 12:27N 40°25' W 074°02'0 0.0
2014-Oct-17 10:11N 40°25' W 074°02'0 0.0
2014-Oct-17 03:09N 40°25' W 074°02'0 0.0
2014-Oct-17 00:33N 40°25' W 074°02'0 0.0
2014-Oct-16 23:31N 40°25' W 074°02'0 0.0
2014-Oct-16 22:33N 40°25' W 074°02'0 0.0
2014-Oct-16 21:27N 40°25' W 074°02'0 0.0
2014-Oct-16 20:32N 40°25' W 074°02'0 0.0
2014-Oct-16 19:33N 40°25' W 074°02'0 0.0
2014-Oct-16 18:33N 40°25' W 074°02'0 0.0
2014-Oct-16 17:33N 40°25' W 074°02'0 0.0
2014-Oct-16 16:31N 40°25' W 074°02'0 0.0
2014-Oct-16 15:32N 40°25' W 074°02'0 0.0
2014-Oct-16 14:15N 40°25' W 074°02'0 0.0
2014-Oct-16 13:29N 40°25' W 074°02'0 0.0
2014-Oct-16 11:15N 40°25' W 074°02'0 0.0
2014-Oct-16 06:32N 40°25' W 074°02'0 0.0
2014-Oct-16 03:14N 40°25' W 074°02'0 0.0
2014-Oct-16 02:22N 40°25' W 074°02'0 0.0
2014-Oct-16 01:33N 40°25' W 074°02'0 0.0
2014-Oct-16 00:31N 40°25' W 074°02'0 0.0
2014-Oct-15 23:33N 40°25' W 074°02'0 0.0
2014-Oct-15 22:33N 40°25' W 074°02'0 0.0
2014-Oct-15 21:33N 40°25' W 074°02'0 0.0
2014-Oct-15 20:33N 40°25' W 074°02'0 0.0
2014-Oct-15 19:33N 40°25' W 074°02'0 0.0
2014-Oct-15 18:33N 40°25' W 074°02'0 0.0
2014-Oct-15 17:33N 40°25' W 074°02'0 0.0
2014-Oct-15 16:33N 40°25' W 074°02'0 0.0
2014-Oct-15 15:33N 40°25' W 074°02'0 0.0
2014-Oct-15 14:33N 40°25' W 074°02'0 0.0
2014-Oct-15 13:33N 40°25' W 074°02'0 0.0
2014-Oct-15 12:33N 40°25' W 074°02'0 0.0
2014-Oct-15 11:33N 40°25' W 074°02'2 0.2
2014-Oct-15 01:21N 40°25' W 073°60'0 0.4
2014-Oct-15 00:34N 40°25' W 074°00'1919.2
2014-Oct-14 23:34N 40°44' W 073°58'  
Track history (hours):
 
Tides and Currents Weather Stations Pressure Air Temp Water Temp Dewpoint Dewpoint Depression Visibility Wind Speed Wind Dir Waves Ship Positions

Seastreak Highlands

Owner: Seastreak llc, atlantic highlands, NJ. More information available from US FCC via Universal Licensing System and Coast Guard Vessel Documentation Center.

Last reported at 2014-Oct-24 23:11 UTC. Time now 2014-Oct-25 11:23 UTC.
Position N 40°25' W 074°02'.

Length 44 m; draft 2 m.

Type: High speed craft. MMSI: 367347670.

Date/timePositionNaut miles runAvg speedWind from/ knotsBaromVisibWave heightAir tempDewpointWater temp
2014-Oct-24 23:11N 40°25' W 074°02'813.0
2014-Oct-24 22:32N 40°34' W 074°02'3 3.6
2014-Oct-24 21:34N 40°37' W 074°03'3 3.0
2014-Oct-24 20:33N 40°34' W 074°02'9 9.0
2014-Oct-24 19:34N 40°43' W 073°58'11 1.7
2014-Oct-24 13:10N 40°32' W 074°02'1321.2
2014-Oct-24 12:33N 40°45' W 073°58'11 0.8
2014-Oct-23 22:34N 40°34' W 074°02'2 2.3
2014-Oct-23 21:34N 40°37' W 074°03'2 2.4
2014-Oct-23 20:33N 40°34' W 074°02'8 8.2
2014-Oct-23 19:34N 40°42' W 073°60'4 0.9
2014-Oct-23 15:34N 40°39' W 074°02'3 2.6
2014-Oct-23 14:34N 40°36' W 074°03'5 3.9
2014-Oct-23 13:16N 40°31' W 074°02'1418.8
2014-Oct-23 12:33N 40°45' W 073°58'1913.4
2014-Oct-23 11:07N 40°25' W 074°00'1 0.8
2014-Oct-23 10:27N 40°25' W 074°01'10 0.9
2014-Oct-22 22:33N 40°36' W 074°03'1 0.8
2014-Oct-22 21:34N 40°36' W 074°03'2 2.1
2014-Oct-22 20:33N 40°34' W 074°02'7 7.0
2014-Oct-22 19:34N 40°41' W 074°01'15 4.5
2014-Oct-22 16:05N 40°26' W 074°01'1427.2
2014-Oct-22 15:34N 40°40' W 074°03'2 1.6
2014-Oct-22 14:34N 40°38' W 074°02'7 5.8
2014-Oct-22 13:18N 40°31' W 074°02'1418.6
2014-Oct-22 12:33N 40°45' W 073°58'10 0.7
2014-Oct-21 22:33N 40°36' W 074°03'1 1.4
2014-Oct-21 21:33N 40°37' W 074°03'2 1.9
2014-Oct-21 20:34N 40°35' W 074°03'8 7.6
2014-Oct-21 19:34N 40°42' W 073°59'1716.3
2014-Oct-21 18:31N 40°25' W 074°01'1 0.2
2014-Oct-21 14:15N 40°25' W 074°02'5 5.2
2014-Oct-21 13:21N 40°30' W 074°02'1518.8
2014-Oct-21 12:33N 40°45' W 073°58'2017.7
2014-Oct-21 11:27N 40°25' W 074°02'11 0.9
2014-Oct-20 22:34N 40°37' W 074°03'2 2.3
2014-Oct-20 21:33N 40°34' W 074°02'3 2.5
2014-Oct-20 20:33N 40°37' W 074°03'6 5.7
2014-Oct-20 19:33N 40°42' W 074°00'1714.2
2014-Oct-20 18:22N 40°25' W 074°02'0 0.0
2014-Oct-20 17:32N 40°25' W 074°02'0 0.0
2014-Oct-20 15:12N 40°25' W 074°02'0 0.0
2014-Oct-20 14:20N 40°25' W 074°02'0 0.0
2014-Oct-20 13:15N 40°25' W 074°02'0 0.0
2014-Oct-20 12:15N 40°25' W 074°02'0 0.0
2014-Oct-20 11:33N 40°25' W 074°02'0 0.0
2014-Oct-20 10:26N 40°25' W 074°02'0 0.0
2014-Oct-20 07:26N 40°25' W 074°02'0 0.0
2014-Oct-20 06:31N 40°25' W 074°02'0 0.0
2014-Oct-20 04:25N 40°25' W 074°02'0 0.0
2014-Oct-19 15:15N 40°25' W 074°02'0 0.0
2014-Oct-19 13:21N 40°25' W 074°02'0 0.0
2014-Oct-19 10:24N 40°25' W 074°02'0 0.0
2014-Oct-19 00:20N 40°25' W 074°02'0 0.0
2014-Oct-18 21:14N 40°25' W 074°02'0 0.0
2014-Oct-18 20:26N 40°25' W 074°02'0 0.0
2014-Oct-18 17:15N 40°25' W 074°02'0 0.0
2014-Oct-18 13:30N 40°25' W 074°02'0 0.0
2014-Oct-18 11:21N 40°25' W 074°02'0 0.0
2014-Oct-18 09:32N 40°25' W 074°02'0 0.0
2014-Oct-18 07:12N 40°25' W 074°02'0 0.0
2014-Oct-18 06:27N 40°25' W 074°02'0 0.0
2014-Oct-18 05:17N 40°25' W 074°02'0 0.0
2014-Oct-18 04:33N 40°25' W 074°02'0 0.0
2014-Oct-18 03:33N 40°25' W 074°02'0 0.0
2014-Oct-18 02:32N 40°25' W 074°02'0 0.0
2014-Oct-18 01:33N 40°25' W 074°02'0 0.0
2014-Oct-18 00:33N 40°25' W 074°02'0 0.0
2014-Oct-17 23:33N 40°25' W 074°02'0 0.0
2014-Oct-17 22:33N 40°25' W 074°02'0 0.0
2014-Oct-17 19:22N 40°25' W 074°02'0 0.0
2014-Oct-17 18:14N 40°25' W 074°02'0 0.0
2014-Oct-17 17:28N 40°25' W 074°02'0 0.0
2014-Oct-17 16:18N 40°25' W 074°02'0 0.0
2014-Oct-17 15:33N 40°25' W 074°02'0 0.0
2014-Oct-17 14:27N 40°25' W 074°02'0 0.0
2014-Oct-17 13:32N 40°25' W 074°02'0 0.0
2014-Oct-17 12:27N 40°25' W 074°02'0 0.0
2014-Oct-17 10:11N 40°25' W 074°02'0 0.0
2014-Oct-17 03:09N 40°25' W 074°02'0 0.0
2014-Oct-17 00:33N 40°25' W 074°02'0 0.0
2014-Oct-16 23:31N 40°25' W 074°02'0 0.0
2014-Oct-16 22:33N 40°25' W 074°02'0 0.0
2014-Oct-16 21:27N 40°25' W 074°02'0 0.0
2014-Oct-16 20:32N 40°25' W 074°02'0 0.0
2014-Oct-16 19:33N 40°25' W 074°02'0 0.0
2014-Oct-16 18:33N 40°25' W 074°02'0 0.0
2014-Oct-16 17:33N 40°25' W 074°02'0 0.0
2014-Oct-16 16:31N 40°25' W 074°02'0 0.0
2014-Oct-16 15:32N 40°25' W 074°02'0 0.0
2014-Oct-16 14:15N 40°25' W 074°02'0 0.0
2014-Oct-16 13:29N 40°25' W 074°02'0 0.0
2014-Oct-16 11:15N 40°25' W 074°02'0 0.0
2014-Oct-16 06:32N 40°25' W 074°02'0 0.0
2014-Oct-16 03:14N 40°25' W 074°02'0 0.0
2014-Oct-16 02:22N 40°25' W 074°02'0 0.0
2014-Oct-16 01:33N 40°25' W 074°02'0 0.0
2014-Oct-16 00:31N 40°25' W 074°02'0 0.0
2014-Oct-15 23:33N 40°25' W 074°02'0 0.0
2014-Oct-15 22:33N 40°25' W 074°02'0 0.0
2014-Oct-15 21:33N 40°25' W 074°02'0 0.0
2014-Oct-15 20:33N 40°25' W 074°02'0 0.0
2014-Oct-15 19:33N 40°25' W 074°02'0 0.0
2014-Oct-15 18:33N 40°25' W 074°02'0 0.0
2014-Oct-15 17:33N 40°25' W 074°02'0 0.0
2014-Oct-15 16:33N 40°25' W 074°02'0 0.0
2014-Oct-15 15:33N 40°25' W 074°02'0 0.0
2014-Oct-15 14:33N 40°25' W 074°02'0 0.0
2014-Oct-15 13:33N 40°25' W 074°02'0 0.0
2014-Oct-15 12:33N 40°25' W 074°02'0 0.0
2014-Oct-15 11:33N 40°25' W 074°02'2 0.2
2014-Oct-15 01:21N 40°25' W 073°60'0 0.4
2014-Oct-15 00:34N 40°25' W 074°00'1919.2
2014-Oct-14 23:34N 40°44' W 073°58'  

Dump ship's entire track history